createdAt,value
2022-08-04T00:02:09.946Z,100.00
2022-08-04T00:05:00.428Z,100.00
2022-08-04T00:07:44.008Z,100.00
2022-08-04T00:10:16.295Z,100.00
2022-08-04T00:12:47.726Z,100.00
2022-08-04T00:15:16.652Z,100.00
2022-08-04T00:17:55.111Z,100.00
2022-08-04T00:20:21.957Z,100.00
2022-08-04T00:22:49.378Z,100.00
2022-08-04T00:25:16.483Z,100.00
2022-08-04T00:27:43.836Z,100.00
2022-08-04T00:30:10.971Z,100.00
2022-08-04T00:32:40.965Z,100.00
2022-08-04T00:35:10.365Z,100.00
2022-08-04T00:37:40.747Z,100.00
2022-08-04T00:40:22.565Z,100.00
2022-08-04T00:43:08.313Z,100.00
2022-08-04T00:46:15.325Z,100.00
2022-08-04T00:49:13.631Z,100.00
2022-08-04T00:51:40.229Z,100.00
2022-08-04T00:54:36.255Z,100.00
2022-08-04T00:57:29.840Z,100.00
2022-08-04T01:00:07.961Z,100.00
2022-08-04T01:02:53.565Z,100.00
2022-08-04T01:05:38.877Z,100.00
2022-08-04T01:08:39.798Z,100.00
2022-08-04T01:11:25.052Z,100.00
2022-08-04T01:14:10.142Z,100.00
2022-08-04T01:16:49.867Z,100.00
2022-08-04T01:19:38.236Z,100.00
2022-08-04T01:22:22.657Z,100.00
2022-08-04T01:25:21.376Z,100.00
2022-08-04T01:27:56.719Z,100.00
2022-08-04T01:30:27.427Z,100.00
2022-08-04T01:33:02.695Z,100.00
2022-08-04T01:35:46.510Z,100.00
2022-08-04T01:38:34.884Z,100.00
2022-08-04T01:41:07.050Z,100.00
2022-08-04T01:43:36.029Z,100.00
2022-08-04T01:46:05.084Z,100.00
2022-08-04T01:48:33.206Z,100.00
2022-08-04T01:51:08.385Z,100.00
2022-08-04T01:53:37.729Z,100.00
2022-08-04T01:56:06.301Z,100.00
2022-08-04T01:58:35.719Z,100.00
2022-08-04T02:01:11.572Z,100.00
2022-08-04T02:04:21.128Z,100.00
2022-08-04T02:06:40.489Z,100.00
2022-08-04T02:09:12.583Z,100.00
2022-08-04T02:11:42.532Z,100.00
2022-08-04T02:14:39.394Z,100.00
2022-08-04T02:17:25.479Z,100.00
2022-08-04T02:20:00.969Z,100.00
2022-08-04T02:22:31.415Z,100.00
2022-08-04T02:25:05.462Z,100.00
2022-08-04T02:27:59.670Z,100.00
2022-08-04T02:31:12.102Z,100.00
2022-08-04T02:33:43.050Z,100.00
2022-08-04T02:36:21.023Z,100.00
2022-08-04T02:38:55.846Z,100.00
2022-08-04T02:41:24.803Z,100.00
2022-08-04T02:43:55.096Z,100.00
2022-08-04T02:46:22.478Z,100.00
2022-08-04T02:48:51.817Z,100.00
2022-08-04T02:51:27.415Z,100.00
2022-08-04T02:53:57.294Z,100.00
2022-08-04T02:56:25.558Z,100.00
2022-08-04T02:58:58.993Z,100.00
2022-08-04T03:01:26.790Z,100.00
2022-08-04T03:04:24.708Z,100.00
2022-08-04T03:07:07.362Z,100.00
2022-08-04T03:10:08.818Z,100.00
2022-08-04T03:12:58.950Z,100.00
2022-08-04T03:16:03.609Z,100.00
2022-08-04T03:19:14.628Z,100.00
2022-08-04T03:22:12.371Z,100.00
2022-08-04T03:25:00.583Z,100.00
2022-08-04T03:27:50.234Z,100.00
2022-08-04T03:30:28.497Z,100.00
2022-08-04T03:33:15.362Z,100.00
2022-08-04T03:36:09.902Z,100.00
2022-08-04T03:38:57.179Z,100.00
2022-08-04T03:42:03.254Z,100.00
2022-08-04T03:44:51.760Z,100.00
2022-08-04T03:47:33.427Z,100.00
2022-08-04T03:50:22.129Z,100.00
2022-08-04T03:53:20.114Z,100.00
2022-08-04T03:55:55.421Z,100.00
2022-08-04T03:58:30.542Z,100.00
2022-08-04T04:01:06.833Z,100.00
2022-08-04T04:04:03.484Z,100.00
2022-08-04T04:07:07.479Z,100.00
2022-08-04T04:09:57.818Z,100.00
2022-08-04T04:12:39.636Z,100.00
2022-08-04T04:15:19.573Z,100.00
2022-08-04T04:18:04.717Z,100.00
2022-08-04T04:20:48.876Z,100.00
2022-08-04T04:23:30.935Z,100.00
2022-08-04T04:26:35.020Z,100.00
2022-08-04T04:29:35.188Z,100.00
2022-08-04T04:32:21.530Z,100.00
2022-08-04T04:35:20.786Z,100.00
2022-08-04T04:37:56.873Z,100.00
2022-08-04T04:40:34.973Z,100.00
2022-08-04T04:43:14.612Z,100.00
2022-08-04T04:45:55.026Z,100.00
2022-08-04T04:48:45.689Z,100.00
2022-08-04T04:51:51.913Z,100.00
2022-08-04T04:54:32.400Z,100.00
2022-08-04T04:57:11.723Z,100.00
2022-08-04T04:59:45.718Z,100.00
2022-08-04T05:02:33.326Z,100.00
2022-08-04T05:05:06.006Z,100.00
2022-08-04T05:07:53.024Z,100.00
2022-08-04T05:10:39.581Z,100.00
2022-08-04T05:14:37.545Z,100.00
2022-08-04T05:16:21.712Z,100.00
2022-08-04T05:19:09.256Z,100.00
2022-08-04T05:21:47.285Z,100.00
2022-08-04T05:24:19.373Z,100.00
2022-08-04T05:26:50.291Z,100.00
2022-08-04T05:29:37.916Z,100.00
2022-08-04T05:32:13.206Z,100.00
2022-08-04T05:34:49.017Z,100.00
2022-08-04T05:37:18.839Z,100.00
2022-08-04T05:39:50.060Z,100.00
2022-08-04T05:42:16.748Z,100.00
2022-08-04T05:44:50.490Z,100.00
2022-08-04T05:47:18.438Z,100.00
2022-08-04T05:49:45.704Z,100.00
2022-08-04T05:52:29.084Z,100.00
2022-08-04T05:54:58.470Z,100.00
2022-08-04T05:57:26.051Z,100.00
2022-08-04T05:59:55.215Z,100.00
2022-08-04T06:02:24.370Z,100.00
2022-08-04T06:04:53.551Z,100.00
2022-08-04T06:07:20.665Z,100.00
2022-08-04T06:09:47.544Z,100.00
2022-08-04T06:12:37.992Z,100.00
2022-08-04T06:15:06.436Z,100.00
2022-08-04T06:19:57.588Z,100.00
2022-08-04T06:20:32.846Z,100.00
2022-08-04T06:23:04.629Z,100.00
2022-08-04T06:25:44.607Z,100.00
2022-08-04T06:28:11.835Z,100.00
2022-08-04T06:30:40.379Z,100.00
2022-08-04T06:33:24.777Z,100.00
2022-08-04T06:35:55.229Z,100.00
2022-08-04T06:38:24.352Z,100.00
2022-08-04T06:40:51.624Z,100.00
2022-08-04T06:43:19.260Z,100.00
2022-08-04T06:45:47.261Z,100.00
2022-08-04T06:48:16.982Z,100.00
2022-08-04T06:51:27.745Z,100.00
2022-08-04T06:53:34.316Z,100.00
2022-08-04T06:56:01.872Z,100.00
2022-08-04T06:58:32.319Z,100.00
2022-08-04T07:01:02.031Z,100.00
2022-08-04T07:03:30.877Z,100.00
2022-08-04T07:05:57.935Z,100.00
2022-08-04T07:08:24.991Z,100.00
2022-08-04T07:10:53.323Z,100.00
2022-08-04T07:13:20.989Z,100.00
2022-08-04T07:15:48.787Z,100.00
2022-08-04T07:18:16.255Z,100.00
2022-08-04T07:20:44.915Z,100.00
2022-08-04T07:23:17.271Z,100.00
2022-08-04T07:26:00.915Z,100.00
2022-08-04T07:28:31.595Z,100.00
2022-08-04T07:30:58.614Z,100.00
2022-08-04T07:33:27.485Z,100.00
2022-08-04T07:36:04.449Z,100.00
2022-08-04T07:38:37.545Z,100.00
2022-08-04T07:44:03.686Z,100.00
2022-08-04T07:46:31.173Z,100.00
2022-08-04T07:49:00.576Z,100.00
2022-08-04T07:51:28.656Z,100.00
2022-08-04T07:53:57.448Z,100.00
2022-08-04T07:56:28.662Z,100.00
2022-08-04T07:58:56.313Z,100.00
2022-08-04T08:01:24.522Z,100.00
2022-08-04T08:03:53.739Z,100.00
2022-08-04T08:06:32.278Z,100.00
2022-08-04T08:09:12.203Z,100.00
2022-08-04T08:12:37.269Z,100.00
2022-08-04T08:14:28.229Z,100.00
2022-08-04T08:16:54.940Z,100.00
2022-08-04T08:19:21.816Z,100.00
2022-08-04T08:21:58.477Z,100.00
2022-08-04T08:24:31.193Z,100.00
2022-08-04T08:27:00.300Z,100.00
2022-08-04T08:29:29.399Z,100.00
2022-08-04T08:32:01.350Z,100.00
2022-08-04T08:34:31.142Z,100.00
2022-08-04T08:37:14.085Z,100.00
2022-08-04T08:39:56.032Z,100.00
2022-08-04T08:42:41.540Z,100.00
2022-08-04T08:45:11.173Z,100.00
2022-08-04T08:48:00.064Z,100.00
2022-08-04T08:50:59.841Z,100.00
2022-08-04T08:53:44.779Z,100.00
2022-08-04T08:56:14.394Z,100.00
2022-08-04T08:59:01.897Z,100.00
2022-08-04T09:01:34.589Z,100.00
2022-08-04T09:04:32.007Z,100.00
2022-08-04T09:07:14.349Z,100.00
2022-08-04T09:10:02.162Z,100.00
2022-08-04T09:12:51.885Z,100.00
2022-08-04T09:15:33.315Z,96.93
2022-08-04T09:18:11.077Z,95.34
2022-08-04T09:20:43.722Z,93.07
2022-08-04T09:23:19.634Z,88.56
2022-08-04T09:26:05.908Z,82.68
2022-08-04T09:28:53.929Z,83.72
2022-08-04T09:31:28.102Z,78.75
2022-08-04T09:34:22.331Z,78.63
2022-08-04T09:37:17.112Z,79.05
2022-08-04T09:40:04.843Z,82.23
2022-08-04T09:42:50.157Z,78.54
2022-08-04T09:45:42.714Z,73.46
2022-08-04T09:48:48.240Z,71.28
2022-08-04T09:51:57.459Z,72.19
2022-08-04T09:54:29.907Z,73.22
2022-08-04T09:57:38.929Z,77.19
2022-08-04T10:00:10.209Z,75.55
2022-08-04T10:02:44.274Z,73.40
2022-08-04T10:05:23.438Z,75.41
2022-08-04T10:08:22.967Z,80.15
2022-08-04T10:11:12.311Z,82.18
2022-08-04T10:14:11.491Z,86.62
2022-08-04T10:17:02.903Z,84.63
2022-08-04T10:19:34.906Z,87.19
2022-08-04T10:22:28.931Z,83.04
2022-08-04T10:25:03.545Z,82.16
2022-08-04T10:27:38.488Z,79.22
2022-08-04T10:30:13.886Z,77.87
2022-08-04T10:33:04.019Z,74.94
2022-08-04T10:35:39.985Z,75.52
2022-08-04T10:38:09.687Z,74.40
2022-08-04T10:40:45.321Z,72.73
2022-08-04T10:43:46.258Z,75.08
2022-08-04T10:46:17.696Z,73.49
2022-08-04T10:49:07.407Z,71.87
2022-08-04T10:51:58.320Z,74.15
2022-08-04T10:54:43.818Z,74.81
2022-08-04T10:57:21.363Z,72.08
2022-08-04T11:00:14.651Z,70.66
2022-08-04T11:02:59.869Z,68.59
2022-08-04T11:05:44.179Z,69.04
2022-08-04T11:08:22.158Z,69.23
2022-08-04T11:11:01.618Z,69.83
2022-08-04T11:14:08.930Z,73.29
2022-08-04T11:16:54.750Z,71.96
2022-08-04T11:19:52.806Z,73.44
2022-08-04T11:22:25.538Z,71.90
2022-08-04T11:25:22.282Z,71.19
2022-08-04T11:28:30.608Z,69.34
2022-08-04T11:31:06.163Z,67.69
2022-08-04T11:34:04.471Z,67.83
2022-08-04T11:37:14.019Z,68.16
2022-08-04T11:39:59.267Z,69.54
2022-08-04T11:42:27.991Z,71.68
2022-08-04T11:45:04.774Z,70.34
2022-08-04T11:47:47.598Z,70.51
2022-08-04T11:50:29.970Z,75.35
2022-08-04T11:52:58.210Z,72.46
2022-08-04T11:55:28.111Z,72.64
2022-08-04T11:57:55.403Z,70.52
2022-08-04T12:00:24.605Z,70.04
2022-08-04T12:03:19.096Z,70.70
2022-08-04T12:06:04.260Z,71.09
2022-08-04T12:08:40.765Z,69.49
2022-08-04T12:11:32.594Z,73.39
2022-08-04T12:14:25.934Z,75.38
2022-08-04T12:17:00.832Z,78.33
2022-08-04T12:20:03.208Z,79.89
2022-08-04T12:22:37.045Z,80.56
2022-08-04T12:25:09.900Z,83.29
2022-08-04T12:27:41.909Z,82.55
2022-08-04T12:31:00.484Z,85.65
2022-08-04T12:33:05.542Z,89.94
2022-08-04T12:35:58.042Z,91.01
2022-08-04T12:38:48.484Z,93.32
2022-08-04T12:41:28.120Z,95.10
2022-08-04T12:43:55.613Z,95.85
2022-08-04T12:46:24.926Z,92.65
2022-08-04T12:48:52.416Z,95.25
2022-08-04T12:52:06.995Z,100.00
2022-08-04T12:54:10.342Z,100.00
2022-08-04T12:56:38.927Z,100.00
2022-08-04T12:59:12.785Z,100.00
2022-08-04T13:02:08.487Z,100.00
2022-08-04T13:04:34.769Z,100.00
2022-08-04T13:07:11.995Z,100.00
2022-08-04T13:09:39.122Z,100.00
2022-08-04T13:12:12.821Z,100.00
2022-08-04T13:14:44.322Z,100.00
2022-08-04T13:17:12.289Z,100.00
2022-08-04T13:19:41.462Z,100.00
2022-08-04T13:22:09.121Z,100.00
2022-08-04T13:24:56.889Z,100.00
2022-08-04T13:27:26.946Z,100.00
2022-08-04T13:30:00.785Z,100.00
2022-08-04T13:32:32.230Z,100.00
2022-08-04T13:35:01.816Z,100.00
2022-08-04T13:37:36.536Z,100.00
2022-08-04T13:40:07.043Z,100.00
2022-08-04T13:42:36.007Z,100.00
2022-08-04T13:45:06.366Z,100.00
2022-08-04T13:47:37.148Z,100.00
2022-08-04T13:50:12.090Z,100.00
2022-08-04T13:52:39.868Z,100.00
2022-08-04T13:55:07.257Z,100.00
2022-08-04T13:57:45.625Z,100.00
2022-08-04T14:00:13.451Z,100.00
2022-08-04T14:02:50.257Z,100.00
2022-08-04T14:05:27.093Z,100.00
2022-08-04T14:08:04.605Z,100.00
2022-08-04T14:10:32.214Z,100.00
2022-08-04T14:12:59.393Z,100.00
2022-08-04T14:16:03.824Z,100.00
2022-08-04T14:18:28.529Z,100.00
2022-08-04T14:21:16.464Z,100.00
2022-08-04T14:23:50.770Z,100.00
2022-08-04T14:26:32.969Z,100.00
2022-08-04T14:29:28.127Z,100.00
2022-08-04T14:32:12.708Z,100.00
2022-08-04T14:34:45.179Z,100.00
2022-08-04T14:37:20.299Z,100.00
2022-08-04T14:40:07.906Z,100.00
2022-08-04T14:42:54.800Z,100.00
2022-08-04T14:45:33.290Z,96.53
2022-08-04T14:48:01.316Z,91.56
2022-08-04T14:50:39.458Z,92.05
2022-08-04T14:53:26.168Z,98.19
2022-08-04T14:55:55.226Z,96.49
2022-08-04T14:58:34.398Z,98.81
2022-08-04T15:01:10.448Z,97.10
2022-08-04T15:03:50.964Z,100.00
2022-08-04T15:06:26.176Z,100.00
2022-08-04T15:08:55.570Z,100.00
2022-08-04T15:11:24.279Z,100.00
2022-08-04T15:13:56.468Z,100.00
2022-08-04T15:16:24.824Z,100.00
2022-08-04T15:18:54.617Z,100.00
2022-08-04T15:21:28.152Z,100.00
2022-08-04T15:23:56.902Z,100.00
2022-08-04T15:26:39.636Z,100.00
2022-08-04T15:29:16.668Z,100.00
2022-08-04T15:32:06.198Z,100.00
2022-08-04T15:35:06.781Z,100.00
2022-08-04T15:37:36.309Z,100.00
2022-08-04T15:40:14.087Z,100.00
2022-08-04T15:43:08.823Z,100.00
2022-08-04T15:46:43.117Z,100.00
2022-08-04T15:48:52.050Z,100.00
2022-08-04T15:51:31.882Z,100.00
2022-08-04T15:54:02.700Z,100.00
2022-08-04T15:56:30.927Z,100.00
2022-08-04T15:58:57.808Z,100.00
2022-08-04T16:01:24.966Z,100.00
2022-08-04T16:03:59.803Z,100.00
2022-08-04T16:06:29.488Z,100.00
2022-08-04T16:09:05.296Z,100.00
2022-08-04T16:11:40.359Z,100.00
2022-08-04T16:14:10.932Z,100.00
2022-08-04T16:16:40.985Z,100.00
2022-08-04T16:19:19.612Z,100.00
2022-08-04T16:21:52.240Z,100.00
2022-08-04T16:24:21.840Z,100.00
2022-08-04T16:26:57.337Z,100.00
2022-08-04T16:29:24.968Z,100.00
2022-08-04T16:32:16.096Z,100.00
2022-08-04T16:34:55.151Z,100.00
2022-08-04T16:37:29.041Z,100.00
2022-08-04T16:40:33.662Z,100.00
2022-08-04T16:43:06.328Z,100.00
2022-08-04T16:45:41.014Z,100.00
2022-08-04T16:48:09.299Z,100.00
2022-08-04T16:51:04.773Z,100.00
2022-08-04T16:54:03.287Z,100.00
2022-08-04T16:56:33.722Z,100.00
2022-08-04T16:59:13.003Z,100.00
2022-08-04T17:01:48.929Z,100.00
2022-08-04T17:04:16.485Z,100.00
2022-08-04T17:06:46.229Z,100.00
2022-08-04T17:09:15.552Z,100.00
2022-08-04T17:11:43.847Z,100.00
2022-08-04T17:14:11.390Z,100.00
2022-08-04T17:16:40.860Z,100.00
2022-08-04T17:19:24.127Z,100.00
2022-08-04T17:22:02.169Z,100.00
2022-08-04T17:24:30.069Z,100.00
2022-08-04T17:26:58.060Z,100.00
2022-08-04T17:29:43.015Z,100.00
2022-08-04T17:32:14.857Z,100.00
2022-08-04T17:34:41.721Z,100.00
2022-08-04T17:37:38.018Z,100.00
2022-08-04T17:40:13.362Z,100.00
2022-08-04T17:42:41.345Z,100.00
2022-08-04T17:48:02.843Z,100.00
2022-08-04T17:50:34.804Z,100.00
2022-08-04T17:53:11.765Z,100.00
2022-08-04T17:55:39.610Z,100.00
2022-08-04T17:58:22.357Z,100.00
2022-08-04T18:01:22.633Z,100.00
2022-08-04T18:03:53.039Z,100.00
2022-08-04T18:06:22.759Z,100.00
2022-08-04T18:11:55.565Z,100.00
2022-08-04T18:14:28.943Z,100.00
2022-08-04T18:16:56.388Z,100.00
2022-08-04T18:19:23.629Z,100.00
2022-08-04T18:22:00.070Z,100.00
2022-08-04T18:24:35.113Z,100.00
2022-08-04T18:27:06.565Z,100.00
2022-08-04T18:32:23.916Z,100.00
2022-08-04T18:35:05.178Z,100.00
2022-08-04T18:38:05.800Z,100.00
2022-08-04T18:40:27.371Z,100.00
2022-08-04T18:43:00.176Z,100.00
2022-08-04T18:45:33.924Z,100.00
2022-08-04T18:48:03.983Z,100.00
2022-08-04T18:50:40.215Z,100.00
2022-08-04T18:53:17.774Z,100.00
2022-08-04T18:55:55.859Z,100.00
2022-08-04T19:01:13.861Z,100.00
2022-08-04T19:03:44.180Z,100.00
2022-08-04T19:06:13.771Z,100.00
2022-08-04T19:08:45.215Z,100.00
2022-08-04T19:14:04.463Z,100.00
2022-08-04T19:16:32.784Z,100.00
2022-08-04T19:19:05.926Z,100.00
2022-08-04T19:22:00.350Z,100.00
2022-08-04T19:24:31.869Z,100.00
2022-08-04T19:27:07.454Z,100.00
2022-08-04T19:29:40.598Z,100.00
2022-08-04T19:32:14.687Z,100.00
2022-08-04T19:34:47.330Z,100.00
2022-08-04T19:37:20.749Z,100.00
2022-08-04T19:40:04.902Z,100.00
2022-08-04T19:42:31.756Z,100.00
2022-08-04T19:44:58.552Z,100.00
2022-08-04T19:48:16.829Z,100.00
2022-08-04T19:50:13.657Z,100.00
2022-08-04T19:52:51.362Z,100.00
2022-08-04T19:55:22.964Z,100.00
2022-08-04T19:58:08.917Z,100.00
2022-08-04T20:00:37.409Z,100.00
2022-08-04T20:03:09.893Z,100.00
2022-08-04T20:05:53.690Z,100.00
2022-08-04T20:08:24.235Z,100.00
2022-08-04T20:10:52.340Z,100.00
2022-08-04T20:13:20.257Z,100.00
2022-08-04T20:15:57.662Z,100.00
2022-08-04T20:18:36.625Z,100.00
2022-08-04T20:21:24.048Z,100.00
2022-08-04T20:24:36.433Z,100.00
2022-08-04T20:26:48.740Z,100.00
2022-08-04T20:29:39.107Z,100.00
2022-08-04T20:32:05.498Z,100.00
2022-08-04T20:34:35.747Z,100.00
2022-08-04T20:37:03.198Z,100.00
2022-08-04T20:39:31.002Z,100.00
2022-08-04T20:41:58.074Z,100.00
2022-08-04T20:44:25.562Z,100.00
2022-08-04T20:46:52.267Z,100.00
2022-08-04T20:49:18.905Z,100.00
2022-08-04T20:51:46.182Z,100.00
2022-08-04T20:54:22.993Z,100.00
2022-08-04T20:56:53.434Z,100.00
2022-08-04T20:59:20.787Z,100.00
2022-08-04T21:01:53.571Z,100.00
2022-08-04T21:04:35.738Z,100.00
2022-08-04T21:07:06.319Z,100.00
2022-08-04T21:09:38.576Z,100.00
2022-08-04T21:12:27.712Z,100.00
2022-08-04T21:14:57.894Z,100.00
2022-08-04T21:17:57.661Z,100.00
2022-08-04T21:20:13.882Z,100.00
2022-08-04T21:22:40.801Z,100.00
2022-08-04T21:25:16.332Z,100.00
2022-08-04T21:27:44.285Z,100.00
2022-08-04T21:30:23.899Z,100.00
2022-08-04T21:32:52.214Z,100.00
2022-08-04T21:35:19.017Z,100.00
2022-08-04T21:37:56.740Z,100.00
2022-08-04T21:40:36.787Z,100.00
2022-08-04T21:43:05.798Z,100.00
2022-08-04T21:45:36.196Z,100.00
2022-08-04T21:48:04.808Z,100.00
2022-08-04T21:50:31.579Z,100.00
2022-08-04T21:52:58.942Z,100.00
2022-08-04T21:56:04.961Z,100.00
2022-08-04T21:58:13.409Z,100.00
2022-08-04T22:00:40.670Z,100.00
2022-08-04T22:03:28.672Z,100.00
2022-08-04T22:05:55.997Z,100.00
2022-08-04T22:08:23.660Z,100.00
2022-08-04T22:10:57.801Z,100.00
2022-08-04T22:13:24.654Z,100.00
2022-08-04T22:16:11.400Z,100.00
2022-08-04T22:18:38.222Z,100.00
2022-08-04T22:21:09.596Z,100.00
2022-08-04T22:23:41.815Z,100.00
2022-08-04T22:26:14.306Z,100.00
2022-08-04T22:28:47.241Z,100.00
2022-08-04T22:31:24.254Z,100.00
2022-08-04T22:33:54.448Z,100.00
2022-08-04T22:36:24.906Z,100.00
2022-08-04T22:39:01.610Z,100.00
2022-08-04T22:41:48.556Z,100.00
2022-08-04T22:44:20.732Z,100.00
2022-08-04T22:46:47.541Z,100.00
2022-08-04T22:49:14.855Z,100.00
2022-08-04T22:51:41.539Z,100.00
2022-08-04T22:54:17.434Z,100.00
2022-08-04T22:56:45.461Z,100.00
2022-08-04T22:59:12.704Z,100.00
2022-08-04T23:02:00.086Z,100.00
2022-08-04T23:04:28.951Z,100.00
2022-08-04T23:06:55.611Z,100.00
2022-08-04T23:09:49.363Z,100.00
2022-08-04T23:12:24.574Z,100.00
2022-08-04T23:14:54.998Z,100.00
2022-08-04T23:17:22.314Z,100.00
2022-08-04T23:19:57.739Z,100.00
2022-08-04T23:22:37.458Z,100.00
2022-08-04T23:25:16.231Z,100.00
2022-08-04T23:27:50.677Z,100.00
2022-08-04T23:30:19.859Z,100.00
2022-08-04T23:32:48.751Z,100.00
2022-08-04T23:35:15.987Z,100.00
2022-08-04T23:37:57.437Z,100.00
2022-08-04T23:40:33.706Z,100.00
2022-08-04T23:43:16.972Z,100.00
2022-08-04T23:46:07.700Z,100.00
2022-08-04T23:48:36.788Z,100.00
2022-08-04T23:51:14.393Z,100.00
2022-08-04T23:54:02.225Z,100.00
2022-08-04T23:56:32.200Z,100.00
2022-08-04T23:59:00.077Z,100.00
